createdAt,value
2023-01-02T00:01:11.793Z,8.40
2023-01-02T00:03:39.581Z,8.18
2023-01-02T00:06:08.000Z,8.75
2023-01-02T00:08:35.775Z,7.32
2023-01-02T00:11:03.460Z,6.20
2023-01-02T00:13:31.368Z,6.32
2023-01-02T00:15:59.051Z,5.65
2023-01-02T00:18:29.156Z,6.45
2023-01-02T00:20:56.920Z,5.93
2023-01-02T00:23:24.664Z,5.88
2023-01-02T00:25:52.392Z,6.13
2023-01-02T00:28:20.051Z,5.93
2023-01-02T00:30:47.707Z,5.75
2023-01-02T00:33:16.271Z,5.97
2023-01-02T00:35:45.271Z,6.63
2023-01-02T00:38:13.027Z,5.65
2023-01-02T00:40:40.721Z,5.65
2023-01-02T00:43:08.389Z,5.38
2023-01-02T00:45:36.057Z,5.65
2023-01-02T00:48:03.738Z,5.32
2023-01-02T00:50:31.353Z,5.22
2023-01-02T00:53:00.486Z,5.18
2023-01-02T00:55:28.307Z,5.30
2023-01-02T00:57:56.007Z,5.13
2023-01-02T01:00:24.430Z,5.00
2023-01-02T01:02:56.234Z,4.90
2023-01-02T01:05:24.092Z,5.65
2023-01-02T01:07:51.835Z,5.43
2023-01-02T01:10:20.933Z,5.25
2023-01-02T01:12:48.626Z,5.28
2023-01-02T01:15:16.452Z,5.45
2023-01-02T01:17:44.367Z,5.55
2023-01-02T01:20:12.703Z,5.55
2023-01-02T01:22:40.415Z,4.70
2023-01-02T01:25:08.804Z,5.18
2023-01-02T01:27:38.016Z,5.40
2023-01-02T01:30:07.174Z,5.55
2023-01-02T01:32:35.495Z,4.80
2023-01-02T01:35:03.440Z,4.85
2023-01-02T01:37:31.293Z,4.80
2023-01-02T01:39:59.021Z,5.25
2023-01-02T01:42:33.080Z,5.50
2023-01-02T01:45:02.631Z,5.30
2023-01-02T01:47:38.993Z,5.00
2023-01-02T01:50:10.176Z,5.45
2023-01-02T01:52:43.058Z,5.20
2023-01-02T01:55:15.424Z,5.10
2023-01-02T01:57:47.106Z,5.03
2023-01-02T02:00:17.044Z,5.50
2023-01-02T02:02:47.810Z,5.82
2023-01-02T02:05:20.174Z,5.88
2023-01-02T02:07:58.531Z,5.55
2023-01-02T02:10:26.298Z,5.20
2023-01-02T02:12:54.155Z,5.95
2023-01-02T02:15:29.604Z,5.38
2023-01-02T02:18:08.644Z,5.57
2023-01-02T02:20:47.037Z,4.60
2023-01-02T02:23:44.771Z,5.18
2023-01-02T02:26:42.419Z,5.15
2023-01-02T02:29:45.889Z,5.30
2023-01-02T02:32:24.288Z,4.85
2023-01-02T02:35:00.670Z,4.75
2023-01-02T02:37:40.640Z,4.82
2023-01-02T02:40:18.090Z,5.35
2023-01-02T02:42:56.704Z,4.57
2023-01-02T02:45:38.255Z,5.25
2023-01-02T02:48:13.688Z,5.55
2023-01-02T02:50:49.492Z,5.00
2023-01-02T02:53:22.508Z,4.97
2023-01-02T02:55:53.743Z,5.45
2023-01-02T02:58:23.871Z,4.70
2023-01-02T03:01:02.913Z,5.20
2023-01-02T03:03:30.678Z,5.15
2023-01-02T03:06:13.814Z,4.78
2023-01-02T03:08:46.203Z,5.22
2023-01-02T03:11:15.013Z,5.03
2023-01-02T03:13:53.007Z,4.85
2023-01-02T03:16:31.064Z,5.32
2023-01-02T03:19:06.103Z,5.47
2023-01-02T03:21:37.713Z,4.88
2023-01-02T03:24:09.560Z,4.75
2023-01-02T03:26:41.439Z,4.60
2023-01-02T03:29:16.229Z,4.82
2023-01-02T03:31:49.373Z,4.72
2023-01-02T03:34:21.441Z,5.20
2023-01-02T03:36:53.311Z,6.93
2023-01-02T03:39:25.828Z,5.55
2023-01-02T03:41:58.797Z,5.15
2023-01-02T03:44:31.394Z,4.78
2023-01-02T03:47:09.318Z,5.00
2023-01-02T03:49:42.246Z,4.85
2023-01-02T03:52:10.019Z,5.18
2023-01-02T03:54:39.278Z,5.18
2023-01-02T03:57:14.017Z,4.75
2023-01-02T03:59:49.957Z,5.47
2023-01-02T04:02:26.787Z,5.10
2023-01-02T04:04:57.493Z,5.88
2023-01-02T04:07:31.687Z,4.85
2023-01-02T04:10:01.415Z,5.30
2023-01-02T04:12:32.617Z,5.40
2023-01-02T04:15:04.340Z,4.95
2023-01-02T04:17:38.287Z,5.05
2023-01-02T04:20:09.702Z,5.45
2023-01-02T04:22:43.177Z,5.10
2023-01-02T04:25:14.119Z,5.25
2023-01-02T04:27:49.840Z,5.05
2023-01-02T04:30:17.543Z,5.82
2023-01-02T04:32:48.383Z,5.55
2023-01-02T04:35:19.349Z,5.30
2023-01-02T04:37:47.855Z,5.07
2023-01-02T04:40:20.994Z,5.20
2023-01-02T04:42:48.924Z,4.60
2023-01-02T04:45:17.075Z,4.80
2023-01-02T04:47:47.949Z,4.78
2023-01-02T04:50:15.916Z,5.20
2023-01-02T04:52:43.685Z,5.50
2023-01-02T04:55:11.950Z,4.60
2023-01-02T04:57:39.655Z,5.35
2023-01-02T05:00:09.159Z,5.15
2023-01-02T05:02:37.901Z,4.85
2023-01-02T05:05:09.269Z,4.43
2023-01-02T05:07:37.792Z,5.05
2023-01-02T05:10:08.173Z,4.80
2023-01-02T05:12:36.653Z,4.97
2023-01-02T05:15:04.727Z,4.85
2023-01-02T05:17:36.049Z,4.45
2023-01-02T05:20:03.831Z,4.45
2023-01-02T05:22:50.472Z,5.82
2023-01-02T05:25:18.303Z,5.10
2023-01-02T05:27:46.025Z,4.70
2023-01-02T05:30:14.199Z,5.05
2023-01-02T05:32:41.866Z,4.70
2023-01-02T05:35:10.456Z,5.43
2023-01-02T05:37:39.670Z,4.95
2023-01-02T05:40:08.653Z,4.95
2023-01-02T05:42:36.367Z,4.53
2023-01-02T05:45:04.541Z,5.00
2023-01-02T05:47:32.477Z,5.38
2023-01-02T05:50:00.190Z,5.25
2023-01-02T05:52:27.885Z,5.30
2023-01-02T05:54:56.985Z,5.13
2023-01-02T05:57:24.668Z,6.07
2023-01-02T05:59:52.341Z,5.50
2023-01-02T06:02:20.132Z,5.30
2023-01-02T06:04:47.817Z,5.07
2023-01-02T06:07:15.537Z,5.65
2023-01-02T06:09:43.367Z,5.07
2023-01-02T06:12:12.456Z,5.25
2023-01-02T06:14:40.093Z,5.15
2023-01-02T06:17:07.935Z,4.18
2023-01-02T06:19:35.614Z,4.63
2023-01-02T06:22:03.305Z,4.97
2023-01-02T06:24:30.984Z,4.72
2023-01-02T06:26:58.656Z,4.68
2023-01-02T06:29:27.637Z,4.25
2023-01-02T06:31:55.321Z,4.55
2023-01-02T06:34:23.046Z,4.32
2023-01-02T06:36:50.796Z,4.50
2023-01-02T06:39:18.483Z,4.55
2023-01-02T06:41:46.268Z,4.40
2023-01-02T06:44:14.516Z,4.75
2023-01-02T06:46:43.543Z,4.90
2023-01-02T06:49:11.322Z,4.20
2023-01-02T06:51:39.129Z,3.80
2023-01-02T06:54:06.856Z,4.85
2023-01-02T06:56:34.584Z,4.38
2023-01-02T06:59:02.272Z,4.60
2023-01-02T07:01:30.738Z,4.82
2023-01-02T07:04:00.035Z,4.50
2023-01-02T07:06:28.730Z,4.63
2023-01-02T07:08:56.556Z,4.97
2023-01-02T07:11:26.252Z,4.80
2023-01-02T07:13:55.449Z,5.05
2023-01-02T07:16:24.883Z,4.45
2023-01-02T07:18:54.170Z,4.53
2023-01-02T07:21:23.927Z,5.00
2023-01-02T07:23:51.591Z,4.85
2023-01-02T07:26:19.689Z,4.47
2023-01-02T07:28:47.747Z,4.88
2023-01-02T07:31:17.533Z,4.57
2023-01-02T07:33:45.553Z,4.43
2023-01-02T07:36:15.297Z,4.60
2023-01-02T07:38:45.202Z,4.00
2023-01-02T07:41:15.287Z,5.13
2023-01-02T07:43:43.865Z,4.60
2023-01-02T07:46:11.599Z,3.92
2023-01-02T07:48:39.617Z,4.20
2023-01-02T07:51:08.442Z,4.30
2023-01-02T07:53:38.113Z,3.80
2023-01-02T07:56:07.329Z,4.30
2023-01-02T07:58:36.375Z,4.00
2023-01-02T08:01:08.228Z,4.20
2023-01-02T08:03:36.671Z,4.28
2023-01-02T08:06:05.805Z,4.60
2023-01-02T08:08:33.676Z,4.15
2023-01-02T08:11:05.228Z,4.72
2023-01-02T08:13:34.332Z,4.03
2023-01-02T08:16:05.858Z,4.20
2023-01-02T08:18:33.955Z,4.60
2023-01-02T08:21:02.005Z,4.47
2023-01-02T08:23:29.778Z,3.70
2023-01-02T08:25:59.878Z,3.40
2023-01-02T08:28:28.119Z,3.47
2023-01-02T08:30:57.665Z,6.95
2023-01-02T08:33:25.522Z,5.18
2023-01-02T08:35:53.573Z,5.53
2023-01-02T08:38:21.410Z,3.67
2023-01-02T08:40:49.053Z,4.07
2023-01-02T08:43:16.700Z,3.53
2023-01-02T08:45:44.411Z,3.17
2023-01-02T08:48:20.337Z,4.53
2023-01-02T08:50:49.180Z,4.95
2023-01-02T08:53:16.866Z,4.40
2023-01-02T08:55:44.836Z,3.75
2023-01-02T08:58:12.592Z,3.22
2023-01-02T09:00:40.841Z,4.00
2023-01-02T09:03:08.597Z,4.50
2023-01-02T09:05:37.811Z,3.90
2023-01-02T09:08:06.106Z,3.55
2023-01-02T09:10:33.770Z,3.90
2023-01-02T09:13:01.356Z,4.28
2023-01-02T09:15:29.082Z,4.03
2023-01-02T09:17:56.860Z,4.22
2023-01-02T09:20:24.580Z,3.50
2023-01-02T09:22:53.654Z,3.72
2023-01-02T09:25:24.297Z,2.78
2023-01-02T09:27:52.564Z,3.35
2023-01-02T09:30:20.558Z,3.20
2023-01-02T09:32:50.818Z,3.35
2023-01-02T09:35:18.716Z,3.03
2023-01-02T09:37:46.630Z,2.60
2023-01-02T09:40:15.764Z,2.38
2023-01-02T09:42:45.948Z,9.10
2023-01-02T09:45:14.653Z,3.83
2023-01-02T09:47:43.867Z,3.28
2023-01-02T09:50:16.479Z,3.47
2023-01-02T09:52:46.703Z,2.85
2023-01-02T09:55:27.951Z,3.15
2023-01-02T09:58:01.715Z,2.70
2023-01-02T10:00:35.368Z,2.95
2023-01-02T10:03:17.877Z,2.70
2023-01-02T10:06:05.728Z,2.90
2023-01-02T10:08:42.966Z,2.80
2023-01-02T10:11:23.756Z,3.38
2023-01-02T10:16:47.961Z,3.03
2023-01-02T10:19:20.884Z,2.90
2023-01-02T10:21:51.011Z,3.05
2023-01-02T10:24:26.181Z,2.63
2023-01-02T10:26:55.520Z,2.65
2023-01-02T10:29:29.897Z,2.90
2023-01-02T10:32:01.263Z,2.72
2023-01-02T10:34:38.324Z,3.35
2023-01-02T10:37:12.757Z,3.38
2023-01-02T10:39:43.260Z,3.05
2023-01-02T10:42:14.621Z,2.70
2023-01-02T10:44:45.221Z,2.63
2023-01-02T10:47:20.371Z,2.60
2023-01-02T10:49:49.598Z,2.25
2023-01-02T10:52:23.214Z,2.72
2023-01-02T10:54:59.611Z,2.58
2023-01-02T10:57:39.460Z,3.15
2023-01-02T11:00:28.117Z,2.30
2023-01-02T11:02:59.057Z,2.28
2023-01-02T11:05:30.268Z,2.60
2023-01-02T11:07:59.468Z,2.50
2023-01-02T11:10:30.219Z,2.38
2023-01-02T11:13:02.777Z,2.90
2023-01-02T11:15:34.521Z,2.83
2023-01-02T11:18:04.369Z,2.58
2023-01-02T11:20:35.192Z,2.95
2023-01-02T11:23:04.696Z,2.30
2023-01-02T11:25:39.447Z,2.60
2023-01-02T11:28:18.139Z,2.70
2023-01-02T11:30:47.885Z,2.72
2023-01-02T11:33:28.261Z,2.70
2023-01-02T11:35:57.605Z,2.70
2023-01-02T11:38:30.159Z,2.75
2023-01-02T11:41:01.588Z,2.60
2023-01-02T11:43:49.869Z,2.97
2023-01-02T11:46:25.216Z,2.50
2023-01-02T11:48:55.645Z,3.97
2023-01-02T11:51:24.127Z,3.40
2023-01-02T11:53:54.975Z,2.75
2023-01-02T11:56:28.173Z,3.15
2023-01-02T11:59:02.577Z,2.80
2023-01-02T12:01:39.423Z,2.80
2023-01-02T12:04:07.482Z,3.70
2023-01-02T12:06:48.525Z,3.00
2023-01-02T12:09:24.773Z,2.92
2023-01-02T12:12:07.784Z,2.70
2023-01-02T12:14:55.223Z,2.85
2023-01-02T12:17:33.018Z,3.25
2023-01-02T12:20:18.082Z,2.92
2023-01-02T12:23:20.467Z,3.00
2023-01-02T12:25:57.240Z,3.20
2023-01-02T12:28:49.672Z,2.78
2023-01-02T12:31:35.184Z,2.92
2023-01-02T12:34:15.818Z,3.15
2023-01-02T12:36:53.915Z,2.80
2023-01-02T12:39:49.974Z,3.15
2023-01-02T12:42:31.092Z,2.50
2023-01-02T12:44:59.930Z,2.75
2023-01-02T12:47:39.402Z,3.17
2023-01-02T12:50:48.445Z,2.75
2023-01-02T12:53:35.656Z,3.22
2023-01-02T12:56:12.167Z,2.97
2023-01-02T12:58:53.742Z,3.10
2023-01-02T13:01:27.399Z,3.30
2023-01-02T13:04:02.482Z,2.70
2023-01-02T13:06:45.668Z,2.83
2023-01-02T13:09:23.004Z,3.67
2023-01-02T13:11:58.447Z,3.40
2023-01-02T13:14:32.106Z,3.13
2023-01-02T13:17:25.252Z,2.78
2023-01-02T13:19:59.747Z,2.85
2023-01-02T13:22:36.284Z,2.60
2023-01-02T13:25:04.714Z,2.60
2023-01-02T13:27:33.678Z,2.58
2023-01-02T13:30:03.228Z,2.80
2023-01-02T13:32:32.253Z,3.10
2023-01-02T13:35:03.652Z,3.35
2023-01-02T13:37:32.003Z,3.03
2023-01-02T13:40:02.342Z,3.00
2023-01-02T13:42:52.224Z,3.10
2023-01-02T13:45:24.776Z,2.97
2023-01-02T13:47:55.092Z,3.20
2023-01-02T13:50:28.377Z,3.08
2023-01-02T13:53:21.525Z,3.55
2023-01-02T13:56:13.267Z,3.13
2023-01-02T13:58:47.019Z,2.95
2023-01-02T14:01:40.624Z,3.60
2023-01-02T14:04:28.772Z,3.42
2023-01-02T14:07:35.452Z,3.13
2023-01-02T14:10:15.587Z,3.50
2023-01-02T14:12:53.375Z,3.63
2023-01-02T14:15:24.985Z,3.78
2023-01-02T14:18:03.731Z,4.25
2023-01-02T14:20:33.616Z,3.33
2023-01-02T14:23:06.866Z,3.60
2023-01-02T14:25:44.938Z,3.97
2023-01-02T14:28:22.414Z,4.32
2023-01-02T14:30:50.994Z,4.05
2023-01-02T14:33:27.060Z,3.92
2023-01-02T14:35:58.738Z,3.65
2023-01-02T14:38:31.487Z,3.25
2023-01-02T14:41:19.321Z,3.15
2023-01-02T14:43:47.817Z,3.72
2023-01-02T14:46:19.940Z,2.85
2023-01-02T14:48:55.511Z,3.40
2023-01-02T14:51:29.219Z,4.75
2023-01-02T14:54:02.246Z,3.67
2023-01-02T14:56:36.198Z,4.05
2023-01-02T14:59:05.891Z,3.50
2023-01-02T15:01:43.170Z,3.83
2023-01-02T15:04:21.235Z,3.80
2023-01-02T15:06:52.930Z,3.53
2023-01-02T15:09:31.292Z,3.95
2023-01-02T15:12:18.423Z,3.88
2023-01-02T15:14:46.817Z,3.50
2023-01-02T15:17:19.707Z,3.53
2023-01-02T15:19:48.222Z,6.30
2023-01-02T15:22:18.506Z,4.40
2023-01-02T15:24:50.673Z,3.15
2023-01-02T15:27:24.661Z,3.33
2023-01-02T15:29:54.419Z,3.13
2023-01-02T15:32:24.478Z,3.22
2023-01-02T15:34:52.364Z,3.25
2023-01-02T15:37:22.580Z,3.50
2023-01-02T15:39:54.016Z,2.85
2023-01-02T15:42:42.559Z,3.30
2023-01-02T15:45:15.206Z,3.50
2023-01-02T15:47:46.958Z,1.85
2023-01-02T15:50:19.087Z,2.50
2023-01-02T15:52:49.120Z,0.90
2023-01-02T15:55:20.028Z,0.80
2023-01-02T15:57:50.071Z,0.70
2023-01-02T16:00:40.746Z,0.80
2023-01-02T16:03:09.946Z,0.63
2023-01-02T16:05:51.048Z,0.70
2023-01-02T16:08:21.176Z,0.57
2023-01-02T16:11:00.927Z,0.50
2023-01-02T16:13:49.397Z,0.60
2023-01-02T16:16:19.062Z,0.65
2023-01-02T16:18:51.322Z,1.13
2023-01-02T16:21:19.760Z,0.90
2023-01-02T16:23:53.339Z,1.00
2023-01-02T16:26:27.418Z,0.90
2023-01-02T16:28:55.849Z,2.38
2023-01-02T16:31:24.978Z,1.30
2023-01-02T16:33:52.740Z,1.20
2023-01-02T16:36:24.480Z,1.42
2023-01-02T16:38:53.684Z,1.40
2023-01-02T16:42:23.246Z,0.93
2023-01-02T16:44:56.543Z,0.90
2023-01-02T16:47:25.465Z,1.30
2023-01-02T16:49:53.290Z,1.40
2023-01-02T16:52:21.028Z,1.38
2023-01-02T16:54:53.937Z,1.30
2023-01-02T16:57:24.414Z,1.00
2023-01-02T16:59:52.029Z,3.38
2023-01-02T17:02:19.949Z,1.88
2023-01-02T17:04:47.635Z,1.55
2023-01-02T17:07:20.183Z,1.50
2023-01-02T17:09:49.977Z,1.48
2023-01-02T17:12:17.744Z,1.13
2023-01-02T17:14:46.781Z,1.20
2023-01-02T17:17:14.478Z,1.50
2023-01-02T17:19:42.169Z,1.20
2023-01-02T17:22:09.862Z,1.20
2023-01-02T17:24:37.676Z,1.20
2023-01-02T17:27:05.445Z,1.15
2023-01-02T17:29:33.347Z,1.30
2023-01-02T17:32:02.400Z,1.30
2023-01-02T17:34:30.129Z,1.00
2023-01-02T17:36:58.174Z,1.20
2023-01-02T17:39:26.326Z,1.35
2023-01-02T17:41:53.963Z,1.40
2023-01-02T17:44:21.867Z,2.40
2023-01-02T17:47:38.914Z,1.60
2023-01-02T17:49:41.032Z,1.80
2023-01-02T17:52:09.018Z,1.70
2023-01-02T17:54:37.063Z,3.88
2023-01-02T17:57:05.654Z,2.80
2023-01-02T17:59:34.118Z,2.97
2023-01-02T18:02:02.136Z,3.67
2023-01-02T18:04:30.051Z,3.85
2023-01-02T18:07:01.282Z,3.10
2023-01-02T18:09:29.236Z,2.38
2023-01-02T18:11:57.419Z,3.05
2023-01-02T18:14:28.230Z,1.67
2023-01-02T18:16:57.285Z,1.70
2023-01-02T18:19:26.907Z,3.20
2023-01-02T18:21:54.946Z,3.58
2023-01-02T18:24:28.055Z,2.90
2023-01-02T18:26:58.501Z,2.15
2023-01-02T18:29:26.332Z,2.03
2023-01-02T18:31:55.508Z,2.05
2023-01-02T18:37:20.332Z,2.40
2023-01-02T18:39:49.750Z,2.20
2023-01-02T18:42:20.186Z,2.85
2023-01-02T18:44:48.662Z,3.05
2023-01-02T18:47:26.242Z,2.10
2023-01-02T18:49:55.074Z,2.33
2023-01-02T18:52:28.227Z,2.28
2023-01-02T18:55:01.742Z,2.42
2023-01-02T18:57:34.311Z,2.90
2023-01-02T19:00:21.059Z,4.25
2023-01-02T19:02:55.069Z,3.75
2023-01-02T19:05:25.675Z,4.90
2023-01-02T19:08:00.666Z,5.05
2023-01-02T19:10:36.936Z,3.45
2023-01-02T19:13:07.897Z,3.08
2023-01-02T19:15:43.038Z,3.20
2023-01-02T19:18:29.936Z,4.50
2023-01-02T19:21:02.649Z,4.72
2023-01-02T19:23:32.152Z,4.90
2023-01-02T19:26:17.993Z,2.63
2023-01-02T19:28:56.301Z,2.75
2023-01-02T19:31:24.708Z,2.65
2023-01-02T19:33:56.972Z,2.60
2023-01-02T19:36:36.542Z,2.95
2023-01-02T19:39:20.490Z,2.50
2023-01-02T19:42:06.877Z,3.53
2023-01-02T19:44:34.570Z,2.60
2023-01-02T19:47:02.396Z,2.00
2023-01-02T19:49:30.199Z,1.50
2023-01-02T19:51:57.958Z,1.50
2023-01-02T19:54:25.744Z,1.27
2023-01-02T19:56:54.905Z,1.35
2023-01-02T19:59:22.859Z,1.60
2023-01-02T20:01:50.669Z,3.75
2023-01-02T20:04:18.462Z,3.08
2023-01-02T20:06:46.108Z,2.75
2023-01-02T20:09:16.306Z,2.42
2023-01-02T20:12:07.385Z,1.98
2023-01-02T20:14:37.064Z,1.80
2023-01-02T20:17:05.823Z,2.75
2023-01-02T20:19:33.789Z,1.45
2023-01-02T20:22:02.425Z,1.20
2023-01-02T20:24:30.538Z,2.45
2023-01-02T20:27:00.125Z,3.45
2023-01-02T20:29:28.706Z,2.80
2023-01-02T20:31:57.857Z,2.03
2023-01-02T20:34:25.971Z,1.30
2023-01-02T20:36:53.833Z,1.27
2023-01-02T20:39:21.742Z,1.00
2023-01-02T20:41:49.365Z,1.33
2023-01-02T20:44:17.352Z,1.08
2023-01-02T20:46:45.195Z,1.10
2023-01-02T20:49:14.452Z,1.35
2023-01-02T20:51:42.155Z,2.72
2023-01-02T20:54:10.707Z,4.63
2023-01-02T20:56:38.337Z,1.17
2023-01-02T20:59:06.104Z,0.93
2023-01-02T21:01:33.951Z,0.90
2023-01-02T21:04:01.897Z,3.47
2023-01-02T21:06:30.933Z,2.78
2023-01-02T21:08:58.590Z,2.10
2023-01-02T21:11:26.325Z,1.50
2023-01-02T21:13:53.977Z,1.33
2023-01-02T21:16:21.705Z,1.55
2023-01-02T21:18:49.376Z,1.40
2023-01-02T21:21:20.185Z,1.60
2023-01-02T21:23:50.539Z,1.50
2023-01-02T21:26:21.745Z,1.50
2023-01-02T21:28:49.974Z,1.42
2023-01-02T21:31:19.692Z,1.60
2023-01-02T21:33:48.463Z,1.30
2023-01-02T21:36:16.557Z,1.60
2023-01-02T21:38:44.759Z,1.98
2023-01-02T21:41:31.289Z,2.20
2023-01-02T21:43:59.084Z,1.42
2023-01-02T21:46:26.815Z,1.60
2023-01-02T21:48:54.609Z,2.33
2023-01-02T21:51:24.374Z,1.40
2023-01-02T21:53:55.468Z,1.70
2023-01-02T21:56:24.552Z,1.50
2023-01-02T21:58:52.253Z,1.75
2023-01-02T22:01:20.013Z,2.17
2023-01-02T22:03:47.905Z,2.13
2023-01-02T22:06:18.543Z,1.98
2023-01-02T22:08:46.264Z,1.90
2023-01-02T22:11:31.438Z,3.53
2023-01-02T22:14:00.426Z,3.10
2023-01-02T22:16:28.343Z,1.60
2023-01-02T22:18:56.069Z,1.60
2023-01-02T22:21:23.958Z,1.33
2023-01-02T22:23:51.737Z,1.30
2023-01-02T22:26:19.840Z,1.60
2023-01-02T22:28:47.538Z,1.77
2023-01-02T22:31:16.818Z,1.80
2023-01-02T22:33:44.677Z,1.73
2023-01-02T22:36:12.328Z,1.92
2023-01-02T22:38:55.055Z,2.10
2023-01-02T22:41:29.638Z,2.10
2023-01-02T22:43:58.449Z,1.92
2023-01-02T22:46:31.140Z,1.92
2023-01-02T22:48:59.534Z,2.05
2023-01-02T22:51:57.612Z,2.20
2023-01-02T22:54:17.329Z,2.20
2023-01-02T22:56:45.114Z,2.00
2023-01-02T22:59:13.007Z,1.58
2023-01-02T23:01:44.100Z,1.50
2023-01-02T23:04:17.832Z,1.75
2023-01-02T23:07:05.679Z,1.48
2023-01-02T23:09:33.860Z,1.90
2023-01-02T23:12:01.540Z,2.10
2023-01-02T23:14:29.230Z,1.52
2023-01-02T23:17:28.376Z,1.52
2023-01-02T23:19:56.038Z,1.42
2023-01-02T23:22:23.951Z,1.67
2023-01-02T23:24:51.734Z,1.58
2023-01-02T23:27:20.009Z,1.38
2023-01-02T23:29:47.711Z,1.63
2023-01-02T23:32:16.882Z,1.60
2023-01-02T23:34:44.632Z,1.73
2023-01-02T23:37:12.357Z,1.80
2023-01-02T23:39:42.862Z,1.55
2023-01-02T23:42:10.676Z,1.30
2023-01-02T23:44:39.431Z,1.45
2023-01-02T23:47:10.012Z,1.73
2023-01-02T23:49:41.487Z,1.60
2023-01-02T23:52:09.745Z,1.60
2023-01-02T23:54:37.510Z,1.92
2023-01-02T23:57:05.281Z,2.00
2023-01-02T23:59:33.036Z,1.83
